ADDS TAF Board (Experimental) INFO Settings

IDs: Format: Expanded Condensed

KSAN - San Diego Intl Arpt, CA, US

Issued at 0520 UTC 29 Mar 2015
Updated at: 0723 UTC 29 Mar 2015
Time0651Z 29/08Z 29/09Z 29/10Z 29/11Z 29/12Z 29/13Z 29/14Z 29/15Z 29/16Z 29/17Z 29/18Z 29/19Z 29/20Z
Type OBS PRVL PRVL PRVL PRVL PRVL PRVL PRVL PRVL PRVL PRVL PRVL PRVL PRVL
VIS 9 6 1 1 1 1 1 1 1 >6 >6 >6 >6 >6
CIG 200 7 2 2 2 2 2 2 2 -- -- -- -- --
Cover BKN BKN OVC OVC OVC OVC OVC OVC OVC FEW FEW FEW SKC SKC
FltCat VFR IFR LIFR LIFR LIFR LIFR LIFR LIFR LIFR VFR VFR VFR VFR VFR
WX -- BR BR BR BR BR BR BR BR -- -- -- -- --
WDir VRB VRB VRB VRB VRB VRB VRB VRB VRB VRB VRB VRB 280 280
WSpd 0 4 3 3 3 3 3 3 3 3 3 3 9 9
WGst -- -- -- -- -- -- -- -- -- -- -- -- -- --
R09/27
XWnd VRB VRB VRB VRB VRB VRB VRB VRB VRB VRB VRB VRB -1 -1
HWnd VRB VRB VRB VRB VRB VRB VRB VRB VRB VRB VRB VRB -9 -9

NOTE: TEMPO conditions in [brackets]. Keep in mind TEMPO conditions might be better (lower impact) than prevailing conditions.

Raw TAF
KSAN 290520Z 2906/3012 VRB04KT 6SM BR BKN007
  FM290900 VRB03KT 1SM BR OVC002
  FM291530 VRB03KT P6SM FEW006
  FM291900 28009KT P6SM SKC
  FM300200 VRB05KT P6SM FEW007
  FM300500 VRB05KT 6SM BR BKN005


Raw METAR
KSAN 290651Z 00000KT 9SM FEW007 BKN200 18/15 A3006 RMK AO2 SLP180 T01830150
KSAN 290551Z 30003KT 10SM FEW007 BKN200 18/15 A3006 RMK AO2 SLP180 T01830150 10217 20183 51007
KSAN 290451Z 33004KT 10SM FEW007 BKN200 18/15 A3006 RMK AO2 SLP180 T01830150

METAR Board
Radar Display
Forecast Discussion

TAF Board Legend

Potential Impact
Threat None Slight Moderate High
Visibility (sm) ≥5.1 5.1>X≥3 3>X≥1 <1
Ceiling (100 ft) ≥30.1 30.1>X≥10 10>X≥5 <5
Wind Speed (kt) <10 10≤X<20 20≤X<30 ≥30
Wind Gust (kt) <15 15≤X<25 25≤X<35 ≥35
Weather No Wx Reported VCTS,-TS,-FZRA,SN TS,FZRA +TS,+FZRA,+SN